Flight Track Log - Related Links

Times and Time Zones

All times are in EDT time to prevent confusion due to time zone crossing. See the DAL6225 flight status page for this flight to view local times or setup timezone preferences in your user account.

Time Position Orientation Groundspeed Altitude Reporting Facility
EDT Latitude Longitude Course Direction KTS MPH feet Rate Location/Type
09:05AM 43.0978 -89.3111 99° East 184 212 3,000  Level Chicago Center
09:06AM 43.0872 -89.2169 99° East 253 291 4,800 1,597 Climbing Chicago Center
09:07AM 43.0919 -89.1083 87° East 273 314 6,300 1,805 Climbing Chicago Center
09:08AM 43.0939 -88.9906 89° East 297 342 8,500 1,854 Climbing Chicago Center
09:09AM 43.0994 -88.8719 86° East 311 358 10,100 1,500 Climbing Chicago Center
09:10AM 43.1042 -88.7081 88° East 365 420 11,600 1,452 Climbing Chicago Center
09:11AM 43.1092 -88.5594 87° East 387 445 13,100 1,610 Climbing Chicago Center
09:12AM 43.1125 -88.4050 88° East 405 466 14,900 1,659 Climbing Chicago Center
09:13AM 43.1175 -88.2458 87° East 420 483 16,500 1,984 Climbing Chicago Center
09:14AM 43.1278 -88.0569 86° East 428 493 19,000 1,984 Climbing Chicago Center
09:15AM 43.1361 -87.8936 86° East 433 498 20,600 1,452 Climbing Chicago Center
09:16AM 43.1442 -87.7269 86° East 441 507 22,000 1,415 Climbing Chicago Center
09:17AM 43.1519 -87.5603 86° East 443 510 23,500 1,268 Climbing Chicago Center
09:18AM 43.1586 -87.3706 87° East 455 524 24,600 1,161 Climbing Chicago Center
09:19AM 43.1664 -87.1956 86° East 461 531 25,900 1,258 Climbing Chicago Center
09:20AM 43.1733 -87.0208 87° East 460 529 27,200 1,161 Climbing Chicago Center
09:21AM 43.1794 -86.8450 87° East 462 532 28,300 919 Climbing Chicago Center
09:22AM 43.1858 -86.6678 87° East 465 535 29,100 581 Climbing Chicago Center
09:23AM 43.1917 -86.4867 87° East 473 544 29,500 581 Climbing Chicago Center
09:24AM 43.1983 -86.3011 87° East 484 557 30,300 976 Climbing Chicago Center
09:25AM 43.2061 -86.0775 87° East 483 556 31,500 829 Climbing Chicago Center
09:26AM 43.2111 -85.8919 88° East 478 550 32,000 242 Climbing Chicago Center
09:27AM 43.2150 -85.7053 88° East 483 556 32,000  Level Chicago Center
09:29AM 43.2203 -85.5147 88° East 494 568 32,000 387 Level Chicago Center
09:30AM 43.2250 -85.3247 88° East 498 573 32,800 583 Climbing Chicago Center
09:30AM 43.2267 -85.1994 89° East 485 558 33,000 119 Climbing Cleveland Center
09:31AM 43.2297 -85.0117 89° East 485 558 33,000  Level Cleveland Center
09:32AM 43.2325 -84.8294 89° East 479 551 33,000  Level Cleveland Center
09:33AM 43.2581 -84.6428 79° East 479 551 33,000  Level Cleveland Center
09:34AM 43.2914 -84.4567 76° East 493 567 33,000  Level Cleveland Center
09:35AM 43.2847 -84.2767 93° East 473 544 33,000  Level Cleveland Center
09:36AM 43.2803 -84.0908 92° East 478 550 33,000  Level Cleveland Center
09:37AM 43.2758 -83.8825 92° East 483 556 33,000  Level Cleveland Center
09:38AM 43.2747 -83.7000 90° East 483 556 33,000  Level Cleveland Center
09:39AM 43.2714 -83.5086 91° East 488 562 33,000  Level Cleveland Center
09:40AM 43.2675 -83.3258 92° East 488 562 33,000  Level Cleveland Center
09:41AM 43.2656 -83.1433 91° East 477 549 33,000  Level Cleveland Center
09:42AM 43.2608 -82.9664 92° East 471 542 33,000  Level Cleveland Center
09:43AM 43.2561 -82.7894 92° East 471 542 33,000  Level Cleveland Center
09:44AM 43.2489 -82.6069 93° East 471 542 33,000  Level Cleveland Center
09:45AM 43.2375 -82.4269 95° East 471 542 33,000  Level Cleveland Center
09:46AM 43.2256 -82.2500 95° East 471 542 33,000  Level Cleveland Center
09:47AM 43.2000 -82.0333 99° East 470 541 33,000  Level Toronto Center
09:48AM 43.2000 -81.8500 90° East 470 541 33,000  Level Toronto Center
09:49AM 43.1833 -81.6833 98° East 480 552 33,000  Level Toronto Center
09:50AM 43.1667 -81.5000 97° East 480 552 33,000  Level Toronto Center
09:51AM 43.1500 -81.3000 96° East 490 564 33,000  Level Toronto Center
09:52AM 43.1333 -81.1333 98° East 490 564 33,000  Level Toronto Center
09:53AM 43.1167 -80.9500 97° East 490 564 33,000  Level Toronto Center
09:54AM 43.1167 -80.7500 90° East 480 552 33,000  Level Toronto Center
09:55AM 43.1000 -80.6000 99° East 480 552 33,000  Level Toronto Center
09:56AM 43.0833 -80.4167 97° East 480 552 33,000  Level Toronto Center
09:57AM 43.0667 -80.2000 96° East 490 564 33,000  Level Toronto Center
09:58AM 43.0500 -80.0167 97° East 490 564 33,000  Level Toronto Center
09:59AM 43.0333 -79.8333 97° East 500 575 33,000  Level Toronto Center
10:00AM 43.0167 -79.6500 97° East 490 564 33,000 -200 Level Toronto Center
10:01AM 43.0000 -79.4667 97° East 480 552 32,600 -650 Descending Toronto Center
10:02AM 42.9833 -79.2833 97° East 490 564 31,700 -800 Descending Toronto Center
10:03AM 42.9667 -79.1167 98° East 490 564 31,000 -350 Descending Toronto Center
10:04AM 42.9500 -78.9333 97° East 490 564 31,000  Level Toronto Center
10:05AM 42.9333 -78.7167 96° East 500 575 31,000  Level Toronto Center
10:06AM 42.9272 -78.6239 95° East 484 557 31,000  Level Cleveland Center
10:07AM 42.9069 -78.4317 98° East 496 571 31,000  Level Cleveland Center
10:08AM 42.8867 -78.2456 98° East 502 578 31,000  Level Cleveland Center
10:09AM 42.8683 -78.0564 97° East 502 578 31,000  Level Cleveland Center
10:10AM 42.8494 -77.8703 98° East 502 578 31,000  Level Cleveland Center
10:11AM 42.8283 -77.6869 99° East 502 578 31,000  Level Cleveland Center
10:13AM 42.7711 -77.2692 100° East 506 582 31,000  Level Boston Center
10:14AM 42.7431 -77.0858 102° East 501 577 31,000  Level Boston Center
10:15AM 42.7175 -76.8944 100° East 501 577 31,000  Level Boston Center
10:17AM 42.6844 -76.6689 101° East 501 577 31,000  Level Boston Center
10:18AM 42.6558 -76.4806 102° East 506 582 31,000 -316 Level Boston Center
10:19AM 42.6258 -76.2611 100° East 506 582 30,300 -857 Descending Boston Center
10:20AM 42.5978 -76.0986 103° East 494 568 29,300 -655 Descending Boston Center
10:21AM 42.5667 -75.8939 102° East 494 568 29,000 -149 Descending Boston Center
10:22AM 42.5389 -75.7089 101° East 494 568 29,000  Level Boston Center
10:23AM 42.5106 -75.5244 102° East 494 568 29,000 -50 Level Boston Center
10:24AM 42.4803 -75.3342 102° East 494 568 28,900  Descending Boston Center
10:25AM 42.4344 -75.1578 109° East 499 574 29,000 -356 Climbing Boston Center
10:26AM 42.3739 -74.9919 116° Southeast 493 567 28,200 -1,240 Descending Boston Center
10:27AM 42.3147 -74.8294 116° Southeast 485 558 26,500 -2,033 Descending Boston Center
10:28AM 42.2575 -74.6731 116° Southeast 480 552 24,100 -2,350 Descending Boston Center
10:29AM 42.2019 -74.5281 117° Southeast 459 528 21,800 -2,067 Descending Boston Center
10:30AM 42.1561 -74.4033 116° Southeast 437 503 20,000 -1,377 Descending Boston Center
10:31AM 42.0983 -74.2561 118° Southeast 407 468 19,000 -492 Descending Boston Center
10:32AM 42.0436 -74.1456 124° Southeast 390 449 19,000 -356 Level Boston Center
10:33AM 41.9636 -74.0539 140° Southeast 372 428 18,300 -864 Descending Boston Center
10:34AM 41.8689 -73.9789 149° Southeast 362 417 17,300 -800 Descending Boston Center
10:35AM 41.7906 -73.9186 150° Southeast 344 396 16,700 -992 Descending Boston Center
10:36AM 41.7203 -73.8642 150° Southeast 317 365 15,300 -1,328 Descending Boston Center
10:37AM 41.6458 -73.8292 161° South 293 337 14,000 -1,362 Descending Boston Center
10:38AM 41.5500 -73.8500 189° South 259 298 12,100 -1,414 Descending New York TRACON
10:39AM 41.4833 -73.8667 191° South 253 291 10,700 -1,400 Descending New York TRACON
10:40AM 41.4167 -73.8667 180° South 255 293 9,300 -950 Descending New York TRACON
10:41AM 41.3500 -73.8167 151° Southeast 255 293 8,800 -650 Descending New York TRACON
10:42AM 41.3000 -73.7500 135° Southeast 258 297 8,000 -400 Descending New York TRACON
10:43AM 41.2333 -73.7000 151° Southeast 255 293 8,000 -700 Level New York TRACON
10:44AM 41.1833 -73.6500 143° Southeast 254 292 6,600 -1,650 Descending New York TRACON
10:45AM 41.1167 -73.6333 169° South 238 274 4,700 -1,300 Descending New York TRACON
10:46AM 41.0500 -73.6500 191° South 221 254 4,000 -350 Descending New York TRACON
10:47AM 41.0000 -73.7000 217° Southwest 188 216 4,000  Level New York TRACON
10:48AM 40.9667 -73.7167 201° Southwest 139 160 4,000 -400 Level New York TRACON
10:49AM 40.9333 -73.7333 201° Southwest 124 143 3,200 -500 Descending New York TRACON
10:50AM 40.9167 -73.7667 237° Southwest 124 143 3,000 -450 Descending New York TRACON
10:51AM 40.8833 -73.7833 201° Southwest 128 147 2,300 -700 Descending New York TRACON
10:52AM 40.8500 -73.8167 217° Southwest 125 144 1,600 -650 Descending New York TRACON
10:53AM 40.8167 -73.8333 201° Southwest 121 139 1,000 -650 Descending New York TRACON
10:54AM 40.8000 -73.8667 237° Southwest 129 148 300 -700 Descending New York TRACON
10:56AM 40.7772 -73.8726 180° South  Level Estimated

Login

Don't have an account? Register now (free) for customized features, flight alerts, and more!